Time;durP1;ratioP1;P1;durP2;ratioP2;P2;SDS_P1;SDS_P2;PMS_P1;PMS_P2;Temp;Humidity;BMP_temperature;BMP_pressure;BME280_temperature;BME280_humidity;BME280_pressure;Samples;Min_cycle;Max_cycle;Signal;HPM_P1;HPM_P2
2022/06/25 00:01:32;;;;;;;6.93;1.80;;;;;;;12.98;100.00;96858.25;5130435;27;20088;-96
2022/06/25 00:03:58;;;;;;;8.38;2.17;;;;;;;13.85;100.00;96861.75;5130483;27;20072;-96
2022/06/25 00:06:29;;;;;;;7.78;2.30;;;;;;;14.92;100.00;96873.44;5119964;27;20708;-96
2022/06/25 00:08:54;;;;;;;6.72;1.98;;;;;;;13.27;100.00;96931.88;5119034;27;20113;-96
2022/06/25 00:14:18;;;;;;;7.45;2.35;;;;;;;22.88;100.00;97303.78;5117667;27;20602;-95
2022/06/25 00:16:43;;;;;;;9.07;2.40;;;;;;;20.45;100.00;97206.69;5119153;27;20049;-96
2022/06/25 00:19:17;;;;;;;7.00;2.40;;;;;;;18.80;100.00;97120.50;5117097;27;20475;-95
2022/06/25 00:21:45;;;;;;;8.85;2.28;;;;;;;17.79;100.00;97046.34;5113014;27;20046;-95
2022/06/25 00:24:11;;;;;;;8.13;2.05;;;;;;;18.54;100.00;97025.47;5115143;27;20031;-95
2022/06/25 00:26:37;;;;;;;9.23;2.30;;;;;;;18.19;100.00;96983.88;5115254;27;20118;-96
2022/06/25 00:29:03;;;;;;;9.75;1.95;;;;;;;18.55;100.00;97071.19;5115324;27;20115;-95
2022/06/25 00:31:29;;;;;;;7.68;2.20;;;;;;;18.87;100.00;97581.44;5121248;27;20123;-95
2022/06/25 00:33:54;;;;;;;9.07;2.20;;;;;;;18.92;100.00;97871.78;5119962;27;20024;-96
2022/06/25 00:36:20;;;;;;;10.57;2.58;;;;;;;20.42;100.00;98072.88;5117449;27;20031;-96
2022/06/25 00:38:51;;;;;;;8.18;2.40;;;;;;;23.51;100.00;98168.72;5115910;27;20425;-96
2022/06/25 00:41:17;;;;;;;27.13;6.65;;;;;;;-146.73;100.00;56421.06;5114033;27;20031;-94
2022/06/25 00:43:42;;;;;;;5.88;1.60;;;;;;;-146.73;100.00;56421.06;5117000;27;20084;-96
2022/06/25 00:46:08;;;;;;;7.20;1.45;;;;;;;-146.73;100.00;56421.06;5113351;27;20050;-95
2022/06/25 00:48:34;;;;;;;8.18;1.50;;;;;;;-146.73;100.00;56421.06;5112738;27;20099;-96
2022/06/25 00:51:05;;;;;;;5.80;1.40;;;;;;;-146.73;100.00;56421.06;5115319;27;20119;-96
2022/06/25 00:53:33;;;;;;;6.97;1.40;;;;;;;-146.73;100.00;56421.06;5114528;27;20043;-96
2022/06/25 00:56:00;;;;;;;3.92;1.23;;;;;;;-146.73;100.00;56421.06;5113592;27;20059;-94
2022/06/25 00:58:31;;;;;;;5.15;1.30;;;;;;;-146.73;100.00;56421.06;5119281;27;20031;-95
2022/06/25 01:01:00;;;;;;;6.35;1.98;;;;;;;-146.73;100.00;56421.06;5118054;27;20038;-95
2022/06/25 01:03:27;;;;;;;8.15;1.42;;;;;;;-146.73;100.00;56421.06;5113487;27;20494;-95
2022/06/25 01:05:53;;;;;;;6.97;1.00;;;;;;;-146.73;100.00;56421.06;5112428;27;20605;-95
2022/06/25 01:08:19;;;;;;;4.13;0.95;;;;;;;-146.73;100.00;56421.06;5114965;27;20031;-96
2022/06/25 01:10:45;;;;;;;7.75;1.30;;;;;;;-146.73;100.00;56421.06;5116456;27;20096;-96
2022/06/25 01:13:10;;;;;;;6.15;1.17;;;;;;;-146.73;100.00;56421.06;5117434;27;20027;-96
2022/06/25 01:15:36;;;;;;;6.97;1.25;;;;;;;-146.73;100.00;56421.06;5117831;27;20483;-94
2022/06/25 01:18:02;;;;;;;6.10;1.17;;;;;;;-146.73;100.00;56421.06;5110523;27;20028;-94
2022/06/25 01:20:31;;;;;;;5.35;1.20;;;;;;;-146.73;100.00;56421.06;5117395;27;20597;-96
2022/06/25 01:22:56;;;;;;;5.38;1.02;;;;;;;-146.73;100.00;56421.06;5114607;27;20047;-95
2022/06/25 01:25:22;;;;;;;5.10;1.02;;;;;;;-146.73;100.00;56421.06;5111474;27;20016;-96
2022/06/25 01:27:48;;;;;;;7.57;1.20;;;;;;;-146.73;100.00;56421.06;5117345;27;20039;-95
2022/06/25 01:30:15;;;;;;;8.13;1.20;;;;;;;-146.73;100.00;56421.06;5116441;27;20042;-95
2022/06/25 01:32:41;;;;;;;6.00;0.95;;;;;;;-146.73;100.00;56421.06;5115565;27;20031;-96
2022/06/25 01:35:09;;;;;;;8.15;1.02;;;;;;;-146.73;100.00;56421.06;5114914;27;20050;-95
2022/06/25 01:37:36;;;;;;;5.05;0.90;;;;;;;-146.73;100.00;56421.06;5112126;27;20027;-94
2022/06/25 01:40:02;;;;;;;8.02;1.00;;;;;;;-146.73;100.00;56421.06;5116657;27;20034;-96
2022/06/25 01:45:13;;;;;;;4.60;0.90;;;;;;;-146.73;100.00;56421.06;5120123;27;20100;-93
2022/06/25 01:47:39;;;;;;;4.85;1.00;;;;;;;-146.73;100.00;56421.06;5118377;27;20032;-96
2022/06/25 01:50:07;;;;;;;6.85;1.10;;;;;;;-146.73;100.00;56421.06;5108861;27;20028;-95
2022/06/25 01:52:33;;;;;;;6.63;1.08;;;;;;;-146.73;100.00;56421.06;5116421;27;20497;-96
2022/06/25 01:55:00;;;;;;;8.05;1.40;;;;;;;-146.73;100.00;56421.06;5113991;27;20054;-96
2022/06/25 01:57:25;;;;;;;5.80;1.38;;;;;;;-146.73;100.00;56421.06;5115178;27;20031;-95
2022/06/25 01:59:52;;;;;;;7.90;1.23;;;;;;;-146.73;100.00;56421.06;5113393;27;20468;-96
2022/06/25 02:02:17;;;;;;;7.15;1.33;;;;;;;-146.73;100.00;56421.06;5111528;27;20729;-96
2022/06/25 02:04:43;;;;;;;8.20;1.10;;;;;;;-146.73;100.00;56421.06;5114270;27;20019;-95
2022/06/25 02:07:09;;;;;;;4.72;1.30;;;;;;;-146.73;100.00;56421.06;5110954;28;20050;-95
2022/06/25 02:09:34;;;;;;;7.30;1.50;;;;;;;-146.73;100.00;56421.06;5109281;27;20544;-95
2022/06/25 02:12:00;;;;;;;5.13;1.30;;;;;;;-146.73;100.00;56421.06;5112319;27;20031;-94
2022/06/25 02:14:26;;;;;;;7.43;1.40;;;;;;;-146.73;100.00;56421.06;5114057;27;20028;-95
2022/06/25 02:17:00;;;;;;;7.28;1.60;;;;;;;-146.73;100.00;56421.06;5110383;28;20035;-95
2022/06/25 02:19:25;;;;;;;7.15;1.30;;;;;;;-146.73;100.00;56421.06;5114603;28;20510;-96
2022/06/25 02:21:51;;;;;;;10.23;1.60;;;;;;;-146.73;100.00;56421.06;5114175;27;20019;-94
2022/06/25 02:24:17;;;;;;;7.15;1.52;;;;;;;-146.73;100.00;56421.06;5116990;27;20378;-95
2022/06/25 02:26:44;;;;;;;6.55;1.42;;;;;;;-146.73;100.00;56421.06;5111407;28;20547;-94
2022/06/25 02:29:09;;;;;;;9.63;1.52;;;;;;;-146.73;100.00;56421.06;5110421;28;20056;-94
2022/06/25 02:31:35;;;;;;;6.72;1.33;;;;;;;-146.73;100.00;56421.06;5114254;28;20032;-95
2022/06/25 02:34:00;;;;;;;7.78;1.45;;;;;;;-146.73;100.00;56421.06;5111746;27;20054;-95
2022/06/25 02:36:26;;;;;;;9.55;1.50;;;;;;;-146.73;100.00;56421.06;5110437;28;20110;-95
2022/06/25 02:38:52;;;;;;;7.65;1.80;;;;;;;-146.73;100.00;56421.06;5111473;28;20023;-94
2022/06/25 02:41:18;;;;;;;9.18;1.80;;;;;;;-146.73;100.00;56421.06;5112181;27;20042;-96
2022/06/25 02:43:43;;;;;;;8.13;1.63;;;;;;;-146.73;100.00;56421.06;5112971;28;20027;-95
2022/06/25 02:46:08;;;;;;;8.30;1.50;;;;;;;-146.73;100.00;56421.06;5109562;28;20736;-95
2022/06/25 02:48:34;;;;;;;7.32;1.38;;;;;;;-146.73;100.00;56421.06;5112434;28;20459;-95
2022/06/25 02:51:06;;;;;;;11.95;1.90;;;;;;;-146.73;100.00;56421.06;5108445;28;20036;-95
2022/06/25 02:53:32;;;;;;;7.22;1.50;;;;;;;-146.73;100.00;56421.06;5110655;28;20115;-96
2022/06/25 02:58:54;;;;;;;7.55;1.50;;;;;;;-146.73;100.00;56421.06;5113749;28;20080;-96
2022/06/25 03:01:21;;;;;;;7.45;1.60;;;;;;;-146.73;100.00;56421.06;5113607;28;20046;-96
2022/06/25 03:03:46;;;;;;;8.07;1.50;;;;;;;-146.73;100.00;56421.06;5111456;28;20028;-96
2022/06/25 03:06:12;;;;;;;8.23;1.45;;;;;;;-146.73;100.00;56421.06;5116498;28;20053;-96
2022/06/25 03:08:37;;;;;;;7.15;1.58;;;;;;;-146.73;100.00;56421.06;5109437;28;20028;-96
2022/06/25 03:11:03;;;;;;;6.60;1.73;;;;;;;-146.73;100.00;56421.06;5112781;28;20020;-96
2022/06/25 03:13:31;;;;;;;10.05;1.80;;;;;;;-146.73;100.00;56421.06;5112570;28;20042;-96
2022/06/25 03:15:59;;;;;;;9.98;1.80;;;;;;;-146.73;100.00;56421.06;5113146;28;20028;-96
2022/06/25 03:18:24;;;;;;;8.98;1.63;;;;;;;-146.73;100.00;56421.06;5114142;28;20110;-96
2022/06/25 03:20:52;;;;;;;9.27;1.63;;;;;;;-146.73;100.00;56421.06;5111514;28;20128;-96
2022/06/25 03:23:19;;;;;;;11.00;1.88;;;;;;;-146.73;100.00;56421.06;5111269;28;20027;-96
2022/06/25 03:25:45;;;;;;;10.75;1.88;;;;;;;-146.73;100.00;56421.06;5111052;28;20101;-96
2022/06/25 03:28:15;;;;;;;6.22;1.50;;;;;;;-146.73;100.00;56421.06;5112231;28;20020;-96
2022/06/25 03:30:40;;;;;;;9.60;1.60;;;;;;;-146.73;100.00;56421.06;5111152;28;20023;-96
2022/06/25 03:33:13;;;;;;;8.73;1.70;;;;;;;-146.73;100.00;56421.06;5111524;28;20499;-96
2022/06/25 03:35:39;;;;;;;;;;;;;;;-146.73;100.00;56421.06;5111811;28;20036;-96
2022/06/25 03:38:05;;;;;;;11.38;1.90;;;;;;;-146.73;100.00;56421.06;5111900;28;19912;-96
2022/06/25 03:40:31;;;;;;;6.63;1.48;;;;;;;-146.73;100.00;56421.06;5114779;27;20063;-96
2022/06/25 03:42:58;;;;;;;12.18;1.90;;;;;;;-146.73;100.00;56421.06;5114362;28;20027;-96
2022/06/25 03:45:24;;;;;;;7.05;1.50;;;;;;;-146.73;100.00;56421.06;5114137;28;20039;-96
2022/06/25 03:47:52;;;;;;;9.60;1.77;;;;;;;-146.73;100.00;56421.06;5115268;28;20471;-95
2022/06/25 03:50:19;;;;;;;10.90;2.00;;;;;;;-146.73;100.00;56421.06;5114400;28;20027;-96
2022/06/25 03:52:46;;;;;;;8.73;1.60;;;;;;;-146.73;100.00;56421.06;5114526;28;20036;-95
2022/06/25 03:55:13;;;;;;;12.50;1.70;;;;;;;-146.73;100.00;56421.06;5116548;27;20040;-96
2022/06/25 03:57:38;;;;;;;8.32;1.52;;;;;;;-146.73;100.00;56421.06;5115119;27;20031;-96
2022/06/25 04:00:06;;;;;;;11.02;1.80;;;;;;;-146.73;100.00;56421.06;5116246;27;20038;-96
2022/06/25 04:02:32;;;;;;;14.35;1.90;;;;;;;-146.73;100.00;56421.06;5113629;28;20161;-96
2022/06/25 04:04:58;;;;;;;8.30;1.52;;;;;;;-146.73;100.00;56421.06;5110147;28;20062;-96
2022/06/25 04:07:43;;;;;;;8.35;1.67;;;;;;;-146.73;100.00;56421.06;5121487;27;20028;-96
2022/06/25 04:10:09;;;;;;;12.23;2.10;;;;;;;-146.73;100.00;56421.06;5119856;27;20019;-96
2022/06/25 04:12:34;;;;;;;11.35;1.90;;;;;;;-146.73;100.00;56421.06;5117474;27;20019;-96
2022/06/25 04:15:00;;;;;;;9.02;1.80;;;;;;;-146.73;100.00;56421.06;5116282;28;20118;-96
2022/06/25 04:17:25;;;;;;;11.52;1.80;;;;;;;-146.73;100.00;56421.06;5114337;28;20501;-95
2022/06/25 04:19:51;;;;;;;13.35;2.15;;;;;;;-146.73;100.00;56421.06;5114717;28;20035;-96
2022/06/25 04:22:16;;;;;;;10.15;1.80;;;;;;;-146.73;100.00;56421.06;5113351;27;20058;-96
2022/06/25 04:24:42;;;;;;;10.02;2.13;;;;;;;-146.73;100.00;56421.06;5112699;27;20026;-96
2022/06/25 04:30:06;;;;;;;8.52;1.60;;;;;;;-146.73;100.00;56421.06;5118025;27;20035;-95
2022/06/25 04:32:31;;;;;;;9.25;1.90;;;;;;;-146.73;100.00;56421.06;5114933;28;20088;-96
2022/06/25 04:34:57;;;;;;;11.82;2.13;;;;;;;-146.73;100.00;56421.06;5118773;27;20019;-96
2022/06/25 04:37:27;;;;;;;7.28;1.55;;;;;;;-146.73;100.00;56421.06;5115326;27;20028;-96
2022/06/25 04:40:00;;;;;;;12.82;1.80;;;;;;;-146.73;100.00;56421.06;5116708;27;20023;-96
2022/06/25 04:42:26;;;;;;;8.80;1.90;;;;;;;-146.73;100.00;56421.06;5117080;27;20114;-96
2022/06/25 04:44:51;;;;;;;9.10;1.52;;;;;;;-146.73;100.00;56421.06;5114777;27;20062;-96
2022/06/25 04:47:17;;;;;;;10.80;1.70;;;;;;;-146.73;100.00;56421.06;5117683;27;20307;-95
2022/06/25 04:49:43;;;;;;;10.25;2.00;;;;;;;-146.73;100.00;56421.06;5120728;28;20083;-95
2022/06/25 04:52:09;;;;;;;9.20;1.70;;;;;;;-146.73;100.00;56421.06;5118698;27;20455;-95
2022/06/25 04:54:34;;;;;;;8.15;1.60;;;;;;;-146.73;100.00;56421.06;5126043;27;20035;-96
2022/06/25 04:57:00;;;;;;;10.55;1.85;;;;;;;-146.73;100.00;56421.06;5122950;27;20024;-95
2022/06/25 04:59:25;;;;;;;9.20;1.85;;;;;;;-146.73;100.00;56421.06;5121160;27;20038;-93
2022/06/25 05:01:51;;;;;;;9.30;1.75;;;;;;;-146.73;100.00;56421.06;5119954;27;20027;-96
2022/06/25 05:04:17;;;;;;;7.97;1.50;;;;;;;-146.73;100.00;56421.06;5112899;28;20024;-96
2022/06/25 05:06:44;;;;;;;6.45;1.45;;;;;;;-146.73;100.00;56421.06;5112206;28;20175;-96
2022/06/25 05:09:09;;;;;;;7.65;1.63;;;;;;;-146.73;100.00;56421.06;5116114;27;20035;-96
2022/06/25 05:11:35;;;;;;;7.20;1.70;;;;;;;-146.73;100.00;56421.06;5115287;28;20024;-95
2022/06/25 05:14:00;;;;;;;8.98;2.10;;;;;;;-146.73;100.00;56421.06;5114556;28;20038;-96
2022/06/25 05:16:26;;;;;;;10.00;1.83;;;;;;;-146.73;100.00;56421.06;5116865;27;20023;-96
2022/06/25 05:18:52;;;;;;;10.60;1.85;;;;;;;-146.73;100.00;56421.06;5115909;27;20043;-96
2022/06/25 05:21:17;;;;;;;10.43;1.77;;;;;;;-146.73;100.00;56421.06;5111518;28;20031;-96
2022/06/25 05:23:43;;;;;;;10.43;2.13;;;;;;;-146.73;100.00;56421.06;5112926;27;20042;-96
2022/06/25 05:26:08;;;;;;;7.75;1.60;;;;;;;-146.73;100.00;56421.06;5111581;28;20108;-96
2022/06/25 05:28:34;;;;;;;8.38;1.55;;;;;;;-146.73;100.00;56421.06;5113274;27;20035;-96
2022/06/25 05:31:00;;;;;;;11.02;2.03;;;;;;;-146.73;100.00;56421.06;5110134;27;20049;-96
2022/06/25 05:33:26;;;;;;;11.13;2.03;;;;;;;-146.73;100.00;56421.06;5110453;28;20020;-95
2022/06/25 05:35:51;;;;;;;9.43;1.85;;;;;;;-146.73;100.00;56421.06;5113989;27;20019;-96
2022/06/25 05:38:17;;;;;;;8.85;2.00;;;;;;;-146.73;100.00;56421.06;5112643;28;20023;-96
2022/06/25 05:40:42;;;;;;;9.13;2.00;;;;;;;-146.73;100.00;56421.06;5110316;28;20027;-96
2022/06/25 05:43:08;;;;;;;9.70;2.05;;;;;;;-146.73;100.00;56421.06;5114184;27;20115;-96
2022/06/25 05:45:34;;;;;;;10.23;1.92;;;;;;;-146.73;100.00;56421.06;5113333;28;20028;-96
2022/06/25 05:48:00;;;;;;;11.70;1.90;;;;;;;-146.73;100.00;56421.06;5113267;27;20026;-96
2022/06/25 05:50:26;;;;;;;9.32;1.90;;;;;;;-146.73;100.00;56421.06;5112624;28;20023;-96
2022/06/25 05:52:53;;;;;;;11.63;2.00;;;;;;;-146.73;100.00;56421.06;5111467;28;20024;-96
2022/06/25 05:55:19;;;;;;;10.07;2.00;;;;;;;-146.73;100.00;56421.06;5112437;28;20054;-96
2022/06/25 05:57:46;;;;;;;13.93;2.58;;;;;;;-146.73;100.00;56421.06;5111869;27;20020;-96
2022/06/25 06:00:12;;;;;;;9.68;2.03;;;;;;;-146.73;100.00;56421.06;5110288;28;20790;-96
2022/06/25 06:02:38;;;;;;;9.73;1.85;;;;;;;-146.73;100.00;56421.06;5112299;27;20032;-95
2022/06/25 06:05:05;;;;;;;10.73;1.80;;;;;;;-146.73;100.00;56421.06;5105335;28;20030;-96
2022/06/25 06:07:30;;;;;;;14.30;2.30;;;;;;;-146.73;100.00;56421.06;5112909;27;20106;-95
2022/06/25 06:09:56;;;;;;;9.90;2.10;;;;;;;-146.73;100.00;56421.06;5110309;27;20085;-95
2022/06/25 06:12:21;;;;;;;8.88;1.88;;;;;;;-146.73;100.00;56421.06;5108206;28;20035;-96
2022/06/25 06:14:47;;;;;;;9.57;2.20;;;;;;;-146.73;100.00;56421.06;5109889;28;20022;-95
2022/06/25 06:17:12;;;;;;;10.48;2.35;;;;;;;-146.73;100.00;56421.06;5107469;28;20072;-96
2022/06/25 06:19:38;;;;;;;11.30;2.10;;;;;;;-146.73;100.00;56421.06;5110915;28;20063;-96
2022/06/25 06:22:04;;;;;;;9.75;2.05;;;;;;;-146.73;100.00;56421.06;5110397;28;20027;-96
2022/06/25 06:24:29;;;;;;;13.77;2.22;;;;;;;-146.73;100.00;56421.06;5115318;28;20038;-96
2022/06/25 06:26:55;;;;;;;9.52;1.90;;;;;;;-146.73;100.00;56421.06;5113142;28;20030;-96
2022/06/25 06:29:20;;;;;;;8.00;1.88;;;;;;;-146.73;100.00;56421.06;5115056;27;20059;-96
2022/06/25 06:31:46;;;;;;;12.77;1.70;;;;;;;-146.73;100.00;56421.06;5114213;27;20479;-96
2022/06/25 06:34:12;;;;;;;8.60;2.00;;;;;;;-146.73;100.00;56421.06;5111712;28;20116;-96
2022/06/25 06:36:37;;;;;;;8.75;2.05;;;;;;;-146.73;100.00;56421.06;5112817;28;20095;-96
2022/06/25 06:39:03;;;;;;;8.73;2.00;;;;;;;-146.73;100.00;56421.06;5110760;28;20036;-96
2022/06/25 06:41:28;;;;;;;8.85;1.67;;;;;;;-146.73;100.00;56421.06;5108327;27;20081;-96
2022/06/25 06:43:54;;;;;;;7.80;1.70;;;;;;;-146.73;100.00;56421.06;5112400;28;20027;-96
2022/06/25 06:46:19;;;;;;;10.05;1.85;;;;;;;-146.73;100.00;56421.06;5115773;28;20035;-96
2022/06/25 06:48:45;;;;;;;10.30;2.85;;;;;;;-146.73;100.00;56421.06;5108275;28;20047;-96
2022/06/25 06:51:11;;;;;;;14.30;2.17;;;;;;;-146.73;100.00;56421.06;5114391;27;20106;-96
2022/06/25 06:53:37;;;;;;;10.35;1.77;;;;;;;-146.73;100.00;56421.06;5109595;28;20035;-96
2022/06/25 06:56:03;;;;;;;11.68;1.80;;;;;;;-146.73;100.00;56421.06;5111772;28;20445;-96
2022/06/25 06:58:29;;;;;;;7.90;1.75;;;;;;;-146.73;100.00;56421.06;5109853;28;20035;-96
2022/06/25 07:00:55;;;;;;;10.30;1.67;;;;;;;-146.73;100.00;56421.06;5110881;28;20502;-95
2022/06/25 07:03:20;;;;;;;11.30;1.70;;;;;;;-146.73;100.00;56421.06;5109694;28;20034;-95
2022/06/25 07:05:53;;;;;;;12.40;2.03;;;;;;;-146.73;100.00;56421.06;5107848;28;20016;-95
2022/06/25 07:08:19;;;;;;;12.50;1.63;;;;;;;-146.73;100.00;56421.06;5106195;28;20084;-96
2022/06/25 07:10:45;;;;;;;9.52;2.15;;;;;;;-146.73;100.00;56421.06;5109999;28;20031;-96
2022/06/25 07:13:13;;;;;;;13.15;2.30;;;;;;;-146.73;100.00;56421.06;5110351;28;20023;-96
2022/06/25 07:15:42;;;;;;;9.02;1.77;;;;;;;-146.73;100.00;56421.06;5108723;28;20027;-96
2022/06/25 07:18:07;;;;;;;9.10;1.55;;;;;;;-146.73;100.00;56421.06;5109562;27;20088;-96
2022/06/25 07:20:34;;;;;;;11.63;2.08;;;;;;;-146.73;100.00;56421.06;5114591;28;20126;-96
2022/06/25 07:23:12;;;;;;;10.77;2.15;;;;;;;-146.73;100.00;56421.06;5125639;28;20030;-96
2022/06/25 07:25:58;;;;;;;11.18;1.90;;;;;;;-146.73;100.00;56421.06;5129828;28;20015;-96
2022/06/25 07:28:34;;;;;;;10.00;1.90;;;;;;;-146.73;100.00;56421.06;5133345;28;20035;-96
2022/06/25 07:31:23;;;;;;;11.23;2.30;;;;;;;-146.73;100.00;56421.06;5114950;28;20027;-96
2022/06/25 07:33:49;;;;;;;10.00;1.80;;;;;;;-146.73;100.00;56421.06;5100976;28;20039;-96
2022/06/25 07:36:16;;;;;;;9.70;1.70;;;;;;;-146.73;100.00;56421.06;5121255;28;20507;-96
2022/06/25 07:38:42;;;;;;;9.52;2.00;;;;;;;-146.73;100.00;56421.06;5117348;28;20027;-96
2022/06/25 07:41:07;;;;;;;9.27;1.70;;;;;;;-146.73;100.00;56421.06;5116907;28;20529;-95
2022/06/25 07:43:33;;;;;;;8.93;1.63;;;;;;;-146.73;100.00;56421.06;5116238;27;20531;-96
2022/06/25 07:46:00;;;;;;;8.63;1.65;;;;;;;-146.73;100.00;56421.06;5116787;28;20053;-96
2022/06/25 07:48:25;;;;;;;8.88;1.80;;;;;;;-146.73;100.00;56421.06;5121822;28;20068;-96
2022/06/25 07:53:37;;;;;;;7.60;1.63;;;;;;;-146.73;100.00;56421.06;5122038;28;20037;-96
2022/06/25 07:56:03;;;;;;;10.52;1.55;;;;;;;-146.73;100.00;56421.06;5116282;28;20131;-96
2022/06/25 07:58:28;;;;;;;9.02;1.80;;;;;;;-146.73;100.00;56421.06;5119982;28;20084;-96
2022/06/25 08:00:54;;;;;;;11.48;1.95;;;;;;;-146.73;100.00;56421.06;5120382;28;20495;-96
2022/06/25 08:03:20;;;;;;;8.80;1.88;;;;;;;-146.73;100.00;56421.06;5121429;28;20051;-96
2022/06/25 08:05:46;;;;;;;9.77;1.80;;;;;;;-146.73;100.00;56421.06;5123329;28;20030;-96
2022/06/25 08:08:13;;;;;;;7.32;1.42;;;;;;;-146.73;100.00;56421.06;5126588;28;20036;-96
2022/06/25 08:10:41;;;;;;;6.20;1.60;;;;;;;-146.73;100.00;56421.06;5121717;28;20115;-96
2022/06/25 08:13:08;;;;;;;8.60;1.88;;;;;;;-146.73;100.00;56421.06;5121804;28;20016;-96
2022/06/25 08:15:34;;;;;;;11.35;1.92;;;;;;;-146.73;100.00;56421.06;5117362;28;20035;-96
2022/06/25 08:18:00;;;;;;;11.07;1.80;;;;;;;-146.73;100.00;56421.06;5120882;28;20038;-96
2022/06/25 08:20:27;;;;;;;10.18;1.85;;;;;;;-146.73;100.00;56421.06;5117754;28;20387;-96
2022/06/25 08:22:52;;;;;;;8.65;1.73;;;;;;;-146.73;100.00;56421.06;5120788;28;20032;-96
2022/06/25 08:25:20;;;;;;;11.15;2.00;;;;;;;-146.73;100.00;56421.06;5117861;28;20050;-96
2022/06/25 08:27:49;;;;;;;11.50;2.05;;;;;;;-146.73;100.00;56421.06;5116474;28;20027;-96
2022/06/25 08:30:15;;;;;;;6.60;1.50;;;;;;;-146.73;100.00;56421.06;5116523;28;20043;-96
2022/06/25 08:32:41;;;;;;;7.68;1.60;;;;;;;-146.73;100.00;56421.06;5116934;28;20523;-96
2022/06/25 08:35:07;;;;;;;8.93;1.67;;;;;;;-146.73;100.00;56421.06;5116290;27;20055;-96
2022/06/25 08:37:36;;;;;;;9.65;1.55;;;;;;;-146.73;100.00;56421.06;5116750;28;20686;-96
2022/06/25 08:40:02;;;;;;;8.70;1.58;;;;;;;-146.73;100.00;56421.06;5114520;28;20027;-96
2022/06/25 08:42:28;;;;;;;8.23;1.83;;;;;;;-146.73;100.00;56421.06;5117262;28;20045;-96
2022/06/25 08:44:53;;;;;;;8.63;1.60;;;;;;;-146.73;100.00;56421.06;5119592;28;20135;-96
2022/06/25 08:47:19;;;;;;;10.27;1.92;;;;;;;-146.73;100.00;56421.06;5117961;28;20027;-96
2022/06/25 08:49:45;;;;;;;7.90;1.80;;;;;;;-146.73;100.00;56421.06;5117079;28;20035;-96
2022/06/25 08:52:13;;;;;;;8.75;1.63;;;;;;;-146.73;100.00;56421.06;5120573;27;20087;-96
2022/06/25 08:54:39;;;;;;;11.32;2.17;;;;;;;-146.73;100.00;56421.06;5120945;28;20047;-96
2022/06/25 08:57:08;;;;;;;10.30;1.80;;;;;;;-146.73;100.00;56421.06;5119902;28;20594;-96
2022/06/25 08:59:34;;;;;;;8.65;1.50;;;;;;;-146.73;100.00;56421.06;5116825;28;20064;-96
2022/06/25 09:02:05;;;;;;;8.95;1.75;;;;;;;-146.73;100.00;56421.06;5120930;28;20019;-96
2022/06/25 09:04:31;;;;;;;8.15;1.50;;;;;;;-146.73;100.00;56421.06;5118286;28;20023;-96
2022/06/25 09:07:18;;;;;;;7.97;1.63;;;;;;;-146.73;100.00;56421.06;5116218;28;20024;-96
2022/06/25 09:09:56;;;;;;;10.02;2.03;;;;;;;-146.73;100.00;56421.06;5115073;28;20032;-96
2022/06/25 09:12:24;;;;;;;11.82;1.85;;;;;;;-146.73;100.00;56421.06;5110913;28;20047;-96
2022/06/25 09:14:50;;;;;;;8.18;2.08;;;;;;;-146.73;100.00;56421.06;5114616;28;20044;-96
2022/06/25 09:17:16;;;;;;;8.88;2.00;;;;;;;-146.73;100.00;56421.06;5113490;28;20097;-96
2022/06/25 09:19:50;;;;;;;9.70;2.03;;;;;;;-146.73;100.00;56421.06;5116895;28;20027;-96
2022/06/25 09:22:23;;;;;;;8.73;1.98;;;;;;;-146.73;100.00;56421.06;5119116;28;20023;-96
2022/06/25 09:24:59;;;;;;;7.95;1.67;;;;;;;-146.73;100.00;56421.06;5117558;28;20073;-96
2022/06/25 09:27:33;;;;;;;9.52;1.83;;;;;;;-146.73;100.00;56421.06;5117799;28;20051;-96
2022/06/25 09:30:10;;;;;;;14.60;1.80;;;;;;;-146.73;100.00;56421.06;5105908;22;20149;-94
2022/06/25 09:32:51;;;;;;;10.30;2.03;;;;;;;-146.73;100.00;56421.06;5036784;28;20029;-92
2022/06/25 09:35:43;;;;;;;8.05;1.50;;;;;;;-146.73;100.00;56421.06;5061078;28;20126;-92
2022/06/25 09:38:14;;;;;;;10.73;1.65;;;;;;;-146.73;100.00;56421.06;5034118;28;20025;-93
2022/06/25 09:40:50;;;;;;;7.50;1.60;;;;;;;-146.73;100.00;56421.06;5037206;28;20025;-92
2022/06/25 09:43:20;;;;;;;7.70;1.63;;;;;;;-146.73;100.00;56421.06;5050798;28;20103;-93
2022/06/25 09:45:47;;;;;;;8.35;1.50;;;;;;;-146.73;100.00;56421.06;5045465;28;20124;-94
2022/06/25 09:48:21;;;;;;;7.78;1.48;;;;;;;-146.73;100.00;56421.06;5043992;28;20051;-93
2022/06/25 09:51:05;;;;;;;7.90;1.83;;;;;;;-146.73;100.00;56421.06;5040743;28;20024;-93
2022/06/25 09:53:32;;;;;;;7.93;1.52;;;;;;;-146.73;100.00;56421.06;5043907;28;20496;-92
2022/06/25 09:55:58;;;;;;;7.53;1.67;;;;;;;-146.73;100.00;56421.06;5039483;28;20127;-95
2022/06/25 09:58:26;;;;;;;8.38;1.77;;;;;;;-146.73;100.00;56421.06;5034624;28;20029;-94
2022/06/25 10:00:53;;;;;;;9.38;2.05;;;;;;;-146.73;100.00;56421.06;5038292;28;20036;-94
2022/06/25 10:03:21;;;;;;;7.97;1.48;;;;;;;-146.73;100.00;56421.06;5044053;28;20033;-92
2022/06/25 10:05:47;;;;;;;7.53;1.40;;;;;;;-146.73;100.00;56421.06;5037827;28;20036;-94
2022/06/25 10:08:15;;;;;;;6.72;1.50;;;;;;;-146.73;100.00;56421.06;5044108;28;20055;-92
2022/06/25 10:10:44;;;;;;;7.18;1.50;;;;;;;-146.73;100.00;56421.06;5041686;28;20087;-93
2022/06/25 10:13:10;;;;;;;7.10;1.48;;;;;;;-146.73;100.00;56421.06;5045433;28;20029;-92
2022/06/25 10:15:37;;;;;;;7.03;1.55;;;;;;;-146.73;100.00;56421.06;5048135;28;20044;-92
2022/06/25 10:18:07;;;;;;;7.78;1.60;;;;;;;-146.73;100.00;56421.06;5044949;28;20441;-92
2022/06/25 10:20:34;;;;;;;6.57;1.45;;;;;;;-146.73;100.00;56421.06;5046227;28;20124;-91
2022/06/25 10:23:04;;;;;;;6.80;1.50;;;;;;;-146.73;100.00;56421.06;5041340;28;20033;-93
2022/06/25 10:25:31;;;;;;;4.70;1.00;;;;;;;-146.73;100.00;56421.06;5039539;28;20028;-93
2022/06/25 10:28:15;;;;;;;7.03;1.52;;;;;;;-146.73;100.00;56421.06;5046865;28;20174;-93
2022/06/25 10:30:46;;;;;;;5.70;1.30;;;;;;;-146.73;100.00;56421.06;5048802;28;20053;-93
2022/06/25 10:33:13;;;;;;;7.00;1.50;;;;;;;-146.73;100.00;56421.06;5059347;28;20090;-92
2022/06/25 10:35:40;;;;;;;8.07;1.73;;;;;;;-146.73;100.00;56421.06;5041905;28;20044;-94
2022/06/25 10:38:24;;;;;;;8.88;1.70;;;;;;;-146.73;100.00;56421.06;5038362;28;20493;-94
2022/06/25 10:43:54;;;;;;;10.57;1.90;;;;;;;-146.73;100.00;56421.06;5037795;28;20032;-94
2022/06/25 10:46:36;;;;;;;7.80;1.52;;;;;;;-146.73;100.00;56421.06;5041246;28;20036;-92
2022/06/25 10:49:13;;;;;;;5.97;1.23;;;;;;;-146.73;100.00;56421.06;5040238;28;20029;-93
2022/06/25 10:51:38;;;;;;;8.85;1.73;;;;;;;-146.73;100.00;56421.06;5041560;28;20282;-92
2022/06/25 10:54:06;;;;;;;6.05;1.40;;;;;;;-146.73;100.00;56421.06;5038641;28;20455;-94
2022/06/25 10:56:44;;;;;;;10.52;1.60;;;;;;;-146.73;100.00;56421.06;5043098;28;20028;-91
2022/06/25 10:59:14;;;;;;;11.10;1.80;;;;;;;-146.73;100.00;56421.06;5046845;28;20037;-93
2022/06/25 11:01:39;;;;;;;5.93;1.50;;;;;;;-146.73;100.00;56421.06;5041975;28;20045;-93
2022/06/25 11:04:07;;;;;;;7.90;1.40;;;;;;;-146.73;100.00;56421.06;5041019;28;20021;-93
2022/06/25 11:06:35;;;;;;;7.88;1.42;;;;;;;-146.73;100.00;56421.06;5042424;28;20052;-91
2022/06/25 11:09:08;;;;;;;6.57;1.52;;;;;;;-146.73;100.00;56421.06;5039355;28;20028;-93
2022/06/25 11:11:34;;;;;;;7.13;1.60;;;;;;;-146.73;100.00;56421.06;5036674;28;20108;-93
2022/06/25 11:14:03;;;;;;;6.63;1.45;;;;;;;-146.73;100.00;56421.06;5045083;28;20041;-94
2022/06/25 11:16:28;;;;;;;7.28;1.83;;;;;;;-146.73;100.00;56421.06;5040814;28;20091;-93
2022/06/25 11:18:57;;;;;;;6.70;1.52;;;;;;;-146.73;100.00;56421.06;5041410;28;20033;-92
2022/06/25 11:21:26;;;;;;;7.75;1.60;;;;;;;-146.73;100.00;56421.06;5054191;28;20029;-92
2022/06/25 11:24:10;;;;;;;9.02;1.73;;;;;;;-146.73;100.00;56421.06;5035973;28;20082;-94
2022/06/25 11:29:27;;;;;;;7.47;1.70;;;;;;;-146.73;100.00;56421.06;5035845;28;20111;-91
2022/06/25 11:31:55;;;;;;;6.47;1.30;;;;;;;-146.73;100.00;56421.06;5043369;28;20048;-94